Time;durP1;ratioP1;P1;durP2;ratioP2;P2;SDS_P1;SDS_P2;PMS_P1;PMS_P2;Temp;Humidity;BMP_temperature;BMP_pressure;BME280_temperature;BME280_humidity;BME280_pressure;Samples;Min_cycle;Max_cycle;Signal;HPM_P1;HPM_P2
2021/12/09 00:01:23;;;;;;;9.20;7.03;;;;;;;;;;5055178;28;20145;-68
2021/12/09 00:03:51;;;;;;;9.65;6.03;;;;;;;;;;5052089;28;20053;-68
2021/12/09 00:06:22;;;;;;;8.80;5.32;;;;;;;;;;5051339;28;20051;-70
2021/12/09 00:08:48;;;;;;;11.60;5.97;;;;;;;;;;5051853;28;23885;-68
2021/12/09 00:11:15;;;;;;;9.18;5.95;;;;;;;;;;5053372;28;20051;-68
2021/12/09 00:13:41;;;;;;;8.38;6.15;;;;;;;;;;5053110;28;20067;-68
2021/12/09 00:16:07;;;;;;;10.27;6.13;;;;;;;;;;5053169;28;20144;-70
2021/12/09 00:18:33;;;;;;;13.27;6.50;;;;;;;;;;5052620;28;20056;-68
2021/12/09 00:21:00;;;;;;;13.45;6.43;;;;;;;;;;5045886;28;20063;-69
2021/12/09 00:23:27;;;;;;;11.50;6.82;;;;;;;;;;5055851;28;20053;-69
2021/12/09 00:25:53;;;;;;;9.63;5.53;;;;;;;;;;5052382;28;20049;-70
2021/12/09 00:28:19;;;;;;;9.75;6.07;;;;;;;;;;5057069;28;20057;-69
2021/12/09 00:30:47;;;;;;;14.20;6.35;;;;;;;;;;5054237;28;20049;-69
2021/12/09 00:33:16;;;;;;;8.95;6.60;;;;;;;;;;5056259;28;20050;-70
2021/12/09 00:36:01;;;;;;;14.23;7.65;;;;;;;;;;5059373;28;20152;-69
2021/12/09 00:38:36;;;;;;;9.82;6.15;;;;;;;;;;5049981;28;20053;-68
2021/12/09 00:41:06;;;;;;;14.40;6.65;;;;;;;;;;5053187;28;20702;-68
2021/12/09 00:43:32;;;;;;;10.55;6.32;;;;;;;;;;5052451;28;20410;-68
2021/12/09 00:45:59;;;;;;;10.80;5.68;;;;;;;;;;5052077;28;20054;-68
2021/12/09 00:48:25;;;;;;;12.65;6.45;;;;;;;;;;5056978;28;20053;-68
2021/12/09 00:50:52;;;;;;;10.50;6.30;;;;;;;;;;5066348;28;20989;-69
2021/12/09 00:53:19;;;;;;;9.85;6.40;;;;;;;;;;5068246;28;20060;-69
2021/12/09 00:55:45;;;;;;;10.43;5.80;;;;;;;;;;5054513;28;20060;-69
2021/12/09 00:58:11;;;;;;;11.27;6.93;;;;;;;;;;5056586;28;20049;-68
2021/12/09 01:00:38;;;;;;;12.93;6.60;;;;;;;;;;5050997;28;20161;-68
2021/12/09 01:03:04;;;;;;;18.35;7.18;;;;;;;;;;5054693;28;20192;-68
2021/12/09 01:05:30;;;;;;;11.95;6.63;;;;;;;;;;5051788;28;20049;-68
2021/12/09 01:07:57;;;;;;;12.48;6.20;;;;;;;;;;5051638;28;20550;-70
2021/12/09 01:10:24;;;;;;;13.95;6.82;;;;;;;;;;5050158;28;20063;-70
2021/12/09 01:12:50;;;;;;;13.85;6.47;;;;;;;;;;5056772;28;20053;-70
2021/12/09 01:15:17;;;;;;;12.45;6.40;;;;;;;;;;5047595;28;20053;-70
2021/12/09 01:17:44;;;;;;;11.48;6.38;;;;;;;;;;5059447;28;20060;-70
2021/12/09 01:20:12;;;;;;;9.27;5.40;;;;;;;;;;5071706;28;20433;-69
2021/12/09 01:22:42;;;;;;;15.27;6.43;;;;;;;;;;5070305;28;20132;-68
2021/12/09 01:25:16;;;;;;;8.95;5.38;;;;;;;;;;5064268;28;20049;-70
2021/12/09 01:27:45;;;;;;;9.23;5.68;;;;;;;;;;5057206;28;20061;-70
2021/12/09 01:30:16;;;;;;;13.00;6.20;;;;;;;;;;5039925;28;20056;-69
2021/12/09 01:32:48;;;;;;;12.38;5.78;;;;;;;;;;5046816;28;20049;-69
2021/12/09 01:35:17;;;;;;;9.93;5.97;;;;;;;;;;5058717;28;20049;-70
2021/12/09 01:37:45;;;;;;;12.63;5.95;;;;;;;;;;5065985;28;20044;-68
2021/12/09 01:40:11;;;;;;;12.15;6.18;;;;;;;;;;5055501;28;20057;-69
2021/12/09 01:42:38;;;;;;;19.83;5.88;;;;;;;;;;5063402;28;20068;-69
2021/12/09 01:45:04;;;;;;;18.70;7.45;;;;;;;;;;5067029;28;20045;-70
2021/12/09 01:47:31;;;;;;;11.68;5.88;;;;;;;;;;5054820;28;20434;-69
2021/12/09 01:49:58;;;;;;;23.33;6.38;;;;;;;;;;5060461;28;20053;-69
2021/12/09 01:52:24;;;;;;;12.38;6.18;;;;;;;;;;5071915;28;20049;-69
2021/12/09 01:54:51;;;;;;;11.85;5.65;;;;;;;;;;5056951;28;20064;-70
2021/12/09 01:57:18;;;;;;;16.08;6.00;;;;;;;;;;5065871;28;20083;-69
2021/12/09 01:59:46;;;;;;;12.57;6.03;;;;;;;;;;5057488;28;20081;-69
2021/12/09 02:02:12;;;;;;;9.95;6.15;;;;;;;;;;5063603;28;20059;-69
2021/12/09 02:04:38;;;;;;;12.75;4.95;;;;;;;;;;5059561;28;20065;-69
2021/12/09 02:07:05;;;;;;;11.35;6.03;;;;;;;;;;5066811;28;20506;-68
2021/12/09 02:09:31;;;;;;;12.23;5.82;;;;;;;;;;5052096;28;20060;-68
2021/12/09 02:11:57;;;;;;;12.35;5.72;;;;;;;;;;5053237;28;20072;-69
2021/12/09 02:14:24;;;;;;;14.82;5.70;;;;;;;;;;5062446;28;20088;-70
2021/12/09 02:16:50;;;;;;;13.50;6.35;;;;;;;;;;5060934;28;20076;-69
2021/12/09 02:19:16;;;;;;;15.85;6.13;;;;;;;;;;5052415;28;20057;-69
2021/12/09 02:21:43;;;;;;;13.95;6.05;;;;;;;;;;5058348;28;20076;-69
2021/12/09 02:24:10;;;;;;;11.52;5.95;;;;;;;;;;5052600;28;20133;-69
2021/12/09 02:26:38;;;;;;;8.80;5.80;;;;;;;;;;5058541;28;20081;-69
2021/12/09 02:29:05;;;;;;;9.32;4.93;;;;;;;;;;5066727;28;20052;-68
2021/12/09 02:31:32;;;;;;;15.15;6.03;;;;;;;;;;5058111;28;20061;-68
2021/12/09 02:33:59;;;;;;;12.07;5.72;;;;;;;;;;5055429;28;20057;-68
2021/12/09 02:36:25;;;;;;;9.50;5.88;;;;;;;;;;5061078;28;20057;-70
2021/12/09 02:38:52;;;;;;;14.38;6.07;;;;;;;;;;5065568;28;20176;-69
2021/12/09 02:41:20;;;;;;;14.93;5.95;;;;;;;;;;5053471;28;20060;-70
2021/12/09 02:43:48;;;;;;;14.32;6.43;;;;;;;;;;5058597;28;20421;-69
2021/12/09 02:46:15;;;;;;;11.13;5.30;;;;;;;;;;5067574;28;20049;-69
2021/12/09 02:48:42;;;;;;;14.88;6.25;;;;;;;;;;5058549;28;20488;-69
2021/12/09 02:51:10;;;;;;;13.73;6.20;;;;;;;;;;5063479;28;20155;-69
2021/12/09 02:53:36;;;;;;;13.38;5.70;;;;;;;;;;5065690;28;20076;-68
2021/12/09 02:56:03;;;;;;;13.65;6.35;;;;;;;;;;5060549;28;20050;-68
2021/12/09 02:58:29;;;;;;;13.75;5.80;;;;;;;;;;5052711;28;20120;-69
2021/12/09 03:00:59;;;;;;;13.20;5.60;;;;;;;;;;5056739;28;20053;-70
2021/12/09 03:03:25;;;;;;;12.80;5.72;;;;;;;;;;5071029;28;20045;-70
2021/12/09 03:05:56;;;;;;;12.63;6.35;;;;;;;;;;5059126;28;20068;-70
2021/12/09 03:08:33;;;;;;;12.32;5.85;;;;;;;;;;5068966;28;20461;-70
2021/12/09 03:11:08;;;;;;;16.23;5.90;;;;;;;;;;5059817;28;20053;-70
2021/12/09 03:13:35;;;;;;;12.43;6.82;;;;;;;;;;5049131;28;20077;-67
2021/12/09 03:16:02;;;;;;;13.73;5.85;;;;;;;;;;5052764;28;20509;-68
2021/12/09 03:18:28;;;;;;;12.10;5.50;;;;;;;;;;5054275;28;20523;-70
2021/12/09 03:20:54;;;;;;;8.90;5.90;;;;;;;;;;5070484;28;20053;-68
2021/12/09 03:23:22;;;;;;;9.85;5.90;;;;;;;;;;5070274;28;20049;-67
2021/12/09 03:25:49;;;;;;;15.32;6.47;;;;;;;;;;5058499;28;20053;-70
2021/12/09 03:28:16;;;;;;;9.52;5.57;;;;;;;;;;5062374;28;20053;-68
2021/12/09 03:30:42;;;;;;;10.93;5.20;;;;;;;;;;5053861;28;20080;-68
2021/12/09 03:33:08;;;;;;;16.85;6.22;;;;;;;;;;5064843;28;20520;-68
2021/12/09 03:35:35;;;;;;;13.50;5.93;;;;;;;;;;5063834;28;20048;-68
2021/12/09 03:38:02;;;;;;;26.77;6.10;;;;;;;;;;5064322;28;20049;-70
2021/12/09 03:40:29;;;;;;;11.65;6.13;;;;;;;;;;5057201;28;20140;-69
2021/12/09 03:42:55;;;;;;;14.30;5.25;;;;;;;;;;5052407;28;20227;-69
2021/12/09 03:45:21;;;;;;;14.07;5.50;;;;;;;;;;5064262;28;20059;-67
2021/12/09 03:47:48;;;;;;;12.88;5.65;;;;;;;;;;5053610;28;20064;-68
2021/12/09 03:50:15;;;;;;;8.23;5.82;;;;;;;;;;5060880;28;20500;-69
2021/12/09 03:52:41;;;;;;;9.75;6.20;;;;;;;;;;5062865;28;20060;-69
2021/12/09 03:55:08;;;;;;;18.00;6.38;;;;;;;;;;5067341;28;20057;-69
2021/12/09 03:57:34;;;;;;;17.60;6.88;;;;;;;;;;5073512;28;20052;-68
2021/12/09 04:00:01;;;;;;;10.32;5.15;;;;;;;;;;5064117;28;20132;-70
2021/12/09 04:02:27;;;;;;;13.65;5.10;;;;;;;;;;5069271;28;20055;-70
2021/12/09 04:04:54;;;;;;;11.88;5.10;;;;;;;;;;5062994;28;20053;-69
2021/12/09 04:07:20;;;;;;;16.08;5.32;;;;;;;;;;5063756;28;20489;-69
2021/12/09 04:09:46;;;;;;;14.00;5.85;;;;;;;;;;5069619;28;20051;-70
2021/12/09 04:12:14;;;;;;;10.88;5.18;;;;;;;;;;5055956;28;20061;-69
2021/12/09 04:14:40;;;;;;;11.68;5.95;;;;;;;;;;5069316;28;20057;-69
2021/12/09 04:17:07;;;;;;;9.60;4.97;;;;;;;;;;5067218;28;20532;-68
2021/12/09 04:19:34;;;;;;;10.80;5.07;;;;;;;;;;5071313;28;20132;-69
2021/12/09 04:22:00;;;;;;;13.73;5.68;;;;;;;;;;5065043;28;20054;-67
2021/12/09 04:24:26;;;;;;;10.82;5.00;;;;;;;;;;5065975;28;20085;-68
2021/12/09 04:26:53;;;;;;;10.35;4.78;;;;;;;;;;5073212;28;20060;-68
2021/12/09 04:29:19;;;;;;;8.75;4.68;;;;;;;;;;5056259;28;20059;-68
2021/12/09 04:31:47;;;;;;;13.23;5.32;;;;;;;;;;5049248;28;20493;-68
2021/12/09 04:34:15;;;;;;;10.02;4.85;;;;;;;;;;5062155;28;20127;-68
2021/12/09 04:36:41;;;;;;;13.43;4.65;;;;;;;;;;5073881;28;20057;-68
2021/12/09 04:39:08;;;;;;;13.90;4.68;;;;;;;;;;5065407;28;20064;-69
2021/12/09 04:41:34;;;;;;;15.80;5.13;;;;;;;;;;5064559;28;20053;-68
2021/12/09 04:44:00;;;;;;;12.52;4.75;;;;;;;;;;5063446;28;20060;-68
2021/12/09 04:46:27;;;;;;;13.68;4.85;;;;;;;;;;5055157;28;20053;-69
2021/12/09 04:48:53;;;;;;;12.75;5.03;;;;;;;;;;5063632;28;20077;-69
2021/12/09 04:51:19;;;;;;;7.90;4.40;;;;;;;;;;5069352;28;20048;-69
2021/12/09 04:53:46;;;;;;;15.75;4.90;;;;;;;;;;5046361;28;20060;-69
2021/12/09 04:56:12;;;;;;;9.88;4.38;;;;;;;;;;5071047;28;20107;-70
2021/12/09 04:58:39;;;;;;;12.18;5.05;;;;;;;;;;5068864;28;20575;-68
2021/12/09 05:01:06;;;;;;;13.73;4.47;;;;;;;;;;5056428;28;20184;-68
2021/12/09 05:03:33;;;;;;;12.10;4.70;;;;;;;;;;5068285;28;20053;-69
2021/12/09 05:05:59;;;;;;;15.05;4.53;;;;;;;;;;5070303;28;20095;-69
2021/12/09 05:08:28;;;;;;;11.23;5.03;;;;;;;;;;5063344;28;20053;-69
2021/12/09 05:13:24;;;;;;;6.80;4.20;;;;;;;;;;5060478;28;20595;-69
2021/12/09 05:15:50;;;;;;;16.63;5.10;;;;;;;;;;5067115;28;20092;-69
2021/12/09 05:18:17;;;;;;;11.27;4.72;;;;;;;;;;5066572;28;20551;-68
2021/12/09 05:20:44;;;;;;;14.60;4.10;;;;;;;;;;5070517;28;20071;-68
2021/12/09 05:23:11;;;;;;;12.65;4.88;;;;;;;;;;5042861;28;20046;-69
2021/12/09 05:25:37;;;;;;;12.43;4.63;;;;;;;;;;5055143;28;20050;-70
2021/12/09 05:28:04;;;;;;;13.25;4.43;;;;;;;;;;5054745;28;20053;-69
2021/12/09 05:33:29;;;;;;;12.75;4.03;;;;;;;;;;5032644;28;20141;-69
2021/12/09 05:35:56;;;;;;;13.25;4.13;;;;;;;;;;5065538;28;20049;-69
2021/12/09 05:38:23;;;;;;;12.63;4.13;;;;;;;;;;5061918;28;20580;-70
2021/12/09 05:40:50;;;;;;;10.88;4.43;;;;;;;;;;5059216;28;20515;-70
2021/12/09 05:43:17;;;;;;;9.60;4.57;;;;;;;;;;5056136;28;20057;-68
2021/12/09 05:45:43;;;;;;;10.27;4.63;;;;;;;;;;5066702;28;20053;-69
2021/12/09 05:48:10;;;;;;;10.18;4.05;;;;;;;;;;5068053;28;20061;-68
2021/12/09 05:50:37;;;;;;;11.13;4.88;;;;;;;;;;5066296;28;20061;-70
2021/12/09 05:53:04;;;;;;;11.77;3.90;;;;;;;;;;5042752;28;20058;-70
2021/12/09 05:55:30;;;;;;;12.63;4.68;;;;;;;;;;5049200;28;20079;-70
2021/12/09 05:57:57;;;;;;;11.63;4.38;;;;;;;;;;5046965;28;20516;-71
2021/12/09 06:00:23;;;;;;;12.55;4.82;;;;;;;;;;5049321;28;20056;-70
2021/12/09 06:02:49;;;;;;;11.13;4.20;;;;;;;;;;5045675;28;20050;-70
2021/12/09 06:05:16;;;;;;;12.90;3.90;;;;;;;;;;5045477;28;20058;-69
2021/12/09 06:07:43;;;;;;;10.23;4.22;;;;;;;;;;5040727;28;20063;-69
2021/12/09 06:10:09;;;;;;;13.93;4.40;;;;;;;;;;5051082;28;20056;-70
2021/12/09 06:12:36;;;;;;;14.98;4.28;;;;;;;;;;5050959;28;20104;-70
2021/12/09 06:15:04;;;;;;;10.23;4.03;;;;;;;;;;5050254;28;20064;-69
2021/12/09 06:17:33;;;;;;;13.02;4.28;;;;;;;;;;5047600;28;20053;-69
2021/12/09 06:19:59;;;;;;;8.27;3.95;;;;;;;;;;5051329;28;20057;-69
2021/12/09 06:22:25;;;;;;;13.18;3.63;;;;;;;;;;5052409;28;20132;-70
2021/12/09 06:24:52;;;;;;;11.52;4.28;;;;;;;;;;5050319;28;20064;-69
2021/12/09 06:27:18;;;;;;;9.65;3.83;;;;;;;;;;5049310;28;20064;-70
2021/12/09 06:29:44;;;;;;;12.43;4.28;;;;;;;;;;5051691;28;20054;-70
2021/12/09 06:32:11;;;;;;;14.70;4.25;;;;;;;;;;5049379;28;25254;-69
2021/12/09 06:34:37;;;;;;;10.07;5.03;;;;;;;;;;5059771;28;20421;-69
2021/12/09 06:37:06;;;;;;;10.82;4.50;;;;;;;;;;5049044;28;20157;-68
2021/12/09 06:39:32;;;;;;;9.30;3.97;;;;;;;;;;5049425;28;20108;-68
2021/12/09 06:41:59;;;;;;;14.82;4.32;;;;;;;;;;5051796;28;20117;-67
2021/12/09 06:44:26;;;;;;;16.02;3.97;;;;;;;;;;5054958;28;20096;-69
2021/12/09 06:46:55;;;;;;;9.63;4.28;;;;;;;;;;5054128;28;20081;-68
2021/12/09 06:49:22;;;;;;;10.07;4.20;;;;;;;;;;5050100;28;20458;-69
2021/12/09 06:51:49;;;;;;;7.22;4.18;;;;;;;;;;5052334;28;20053;-68
2021/12/09 06:54:16;;;;;;;10.50;3.78;;;;;;;;;;5055739;28;20053;-67
2021/12/09 06:56:42;;;;;;;20.70;4.78;;;;;;;;;;5052866;28;20045;-68
2021/12/09 06:59:08;;;;;;;7.68;4.05;;;;;;;;;;5062650;28;20084;-69
2021/12/09 07:01:37;;;;;;;8.82;4.00;;;;;;;;;;5052614;28;20092;-69
2021/12/09 07:04:05;;;;;;;16.95;5.20;;;;;;;;;;5052389;28;20136;-69
2021/12/09 07:06:32;;;;;;;13.57;5.25;;;;;;;;;;5052155;28;20220;-69
2021/12/09 07:09:00;;;;;;;11.15;4.45;;;;;;;;;;5056580;28;20049;-68
2021/12/09 07:11:28;;;;;;;9.90;4.57;;;;;;;;;;5053879;28;20057;-68
2021/12/09 07:13:55;;;;;;;13.57;5.95;;;;;;;;;;5053726;28;20053;-68
2021/12/09 07:16:22;;;;;;;13.27;4.57;;;;;;;;;;5053450;28;20584;-67
2021/12/09 07:18:49;;;;;;;10.35;4.60;;;;;;;;;;5054470;28;20060;-69
2021/12/09 07:21:15;;;;;;;11.25;4.30;;;;;;;;;;5062843;28;20515;-68
2021/12/09 07:23:41;;;;;;;12.02;5.00;;;;;;;;;;5060871;28;20486;-68
2021/12/09 07:26:08;;;;;;;9.13;4.15;;;;;;;;;;5055120;28;20106;-70
2021/12/09 07:28:34;;;;;;;12.00;5.05;;;;;;;;;;5068511;28;20046;-68
2021/12/09 07:31:01;;;;;;;9.52;4.45;;;;;;;;;;5054300;28;20428;-68
2021/12/09 07:33:27;;;;;;;12.88;5.80;;;;;;;;;;5052905;28;20059;-69
2021/12/09 07:35:54;;;;;;;11.15;5.70;;;;;;;;;;5053521;28;20052;-68
2021/12/09 07:38:20;;;;;;;10.90;5.25;;;;;;;;;;5053771;28;20053;-69
2021/12/09 07:40:46;;;;;;;15.57;6.28;;;;;;;;;;5054318;28;20173;-70
2021/12/09 07:43:13;;;;;;;10.85;5.28;;;;;;;;;;5049653;28;20061;-68
2021/12/09 07:45:39;;;;;;;12.68;5.75;;;;;;;;;;5052144;28;20053;-68
2021/12/09 07:48:06;;;;;;;12.95;5.45;;;;;;;;;;5053553;28;20124;-68
2021/12/09 07:50:32;;;;;;;10.23;5.65;;;;;;;;;;5053023;28;20053;-67
2021/12/09 07:52:59;;;;;;;15.85;5.63;;;;;;;;;;5053234;28;20064;-69
2021/12/09 07:55:25;;;;;;;9.73;4.75;;;;;;;;;;5052870;28;20049;-67
2021/12/09 07:57:52;;;;;;;8.05;4.40;;;;;;;;;;5053396;28;20056;-68
2021/12/09 08:00:21;;;;;;;13.27;4.90;;;;;;;;;;5053064;28;20049;-70
2021/12/09 08:02:48;;;;;;;11.48;4.70;;;;;;;;;;5054850;28;20060;-68
2021/12/09 08:05:15;;;;;;;10.95;4.68;;;;;;;;;;5051855;28;20486;-68
2021/12/09 08:07:42;;;;;;;8.93;4.43;;;;;;;;;;5053017;28;20049;-68
2021/12/09 08:10:09;;;;;;;9.65;5.30;;;;;;;;;;5053680;28;20060;-68
2021/12/09 08:12:36;;;;;;;8.60;4.75;;;;;;;;;;5067257;28;20059;-69
2021/12/09 08:15:24;;;;;;;14.35;5.60;;;;;;;;;;5062000;28;20061;-69
2021/12/09 08:18:02;;;;;;;7.03;4.53;;;;;;;;;;5053629;28;20517;-70
2021/12/09 08:20:29;;;;;;;9.15;5.28;;;;;;;;;;5047114;28;20077;-69
2021/12/09 08:22:55;;;;;;;10.18;4.85;;;;;;;;;;5050534;28;20056;-70
2021/12/09 08:25:22;;;;;;;8.65;4.85;;;;;;;;;;5063523;28;20057;-66
2021/12/09 08:27:49;;;;;;;13.88;5.20;;;;;;;;;;5073257;28;20651;-68
2021/12/09 08:30:18;;;;;;;10.13;5.13;;;;;;;;;;5061971;28;20485;-69
2021/12/09 08:33:05;;;;;;;11.50;4.30;;;;;;;;;;5054496;28;20417;-68
2021/12/09 08:35:33;;;;;;;13.55;4.75;;;;;;;;;;5052016;28;20046;-70
2021/12/09 08:37:59;;;;;;;12.52;5.40;;;;;;;;;;5070883;28;20057;-70
2021/12/09 08:40:26;;;;;;;13.50;4.55;;;;;;;;;;5073862;28;20059;-69
2021/12/09 08:42:53;;;;;;;10.35;4.68;;;;;;;;;;5063568;28;20501;-69
2021/12/09 08:45:20;;;;;;;12.32;5.25;;;;;;;;;;5052501;28;20055;-68
2021/12/09 08:47:47;;;;;;;8.52;4.32;;;;;;;;;;5052821;28;20057;-68
2021/12/09 08:50:14;;;;;;;13.07;5.07;;;;;;;;;;5052979;28;20053;-70
2021/12/09 08:52:41;;;;;;;12.55;5.18;;;;;;;;;;5068677;28;21048;-68
2021/12/09 08:55:08;;;;;;;7.57;5.05;;;;;;;;;;5052697;28;20049;-68
2021/12/09 08:57:36;;;;;;;10.02;4.82;;;;;;;;;;5059340;28;20140;-68
2021/12/09 09:00:04;;;;;;;11.20;5.13;;;;;;;;;;5042340;28;20054;-68
2021/12/09 09:02:31;;;;;;;9.40;4.43;;;;;;;;;;5044772;28;20557;-68
2021/12/09 09:04:58;;;;;;;6.93;5.32;;;;;;;;;;5032083;28;20054;-68
2021/12/09 09:07:24;;;;;;;10.63;5.40;;;;;;;;;;5050741;28;20060;-67
2021/12/09 09:09:50;;;;;;;12.85;5.22;;;;;;;;;;5052296;28;20136;-68
2021/12/09 09:12:17;;;;;;;11.88;5.72;;;;;;;;;;5052124;28;20053;-68
2021/12/09 09:14:44;;;;;;;11.00;5.55;;;;;;;;;;5054050;28;20056;-68
2021/12/09 09:17:10;;;;;;;11.25;5.88;;;;;;;;;;5070263;28;20057;-68
2021/12/09 09:19:37;;;;;;;15.48;5.60;;;;;;;;;;5066731;28;20057;-68
2021/12/09 09:22:04;;;;;;;14.60;5.45;;;;;;;;;;5056655;28;20050;-69
2021/12/09 09:24:30;;;;;;;12.43;6.35;;;;;;;;;;5056840;28;20090;-68
2021/12/09 09:26:57;;;;;;;13.25;5.20;;;;;;;;;;5071852;28;20048;-68
2021/12/09 09:29:24;;;;;;;9.13;5.18;;;;;;;;;;5057573;28;20509;-67
2021/12/09 09:31:52;;;;;;;16.58;6.85;;;;;;;;;;5052349;28;20059;-68
2021/12/09 09:34:18;;;;;;;13.68;6.10;;;;;;;;;;5051543;28;20135;-68
2021/12/09 09:36:45;;;;;;;15.02;6.05;;;;;;;;;;5061760;28;20053;-68
2021/12/09 09:39:21;;;;;;;15.15;6.43;;;;;;;;;;5051553;28;20112;-68
2021/12/09 09:41:55;;;;;;;18.88;7.10;;;;;;;;;;5049964;28;20496;-69
2021/12/09 09:44:27;;;;;;;16.27;8.40;;;;;;;;;;5053172;28;20056;-69
2021/12/09 09:47:01;;;;;;;16.52;7.25;;;;;;;;;;5051915;28;20056;-68
2021/12/09 09:49:29;;;;;;;15.77;6.93;;;;;;;;;;5051331;28;20050;-68
2021/12/09 09:51:57;;;;;;;15.07;7.20;;;;;;;;;;5050697;28;20061;-70
2021/12/09 09:54:25;;;;;;;15.15;7.95;;;;;;;;;;5044840;28;20050;-67
2021/12/09 09:56:51;;;;;;;15.90;8.10;;;;;;;;;;5069142;28;20515;-67
2021/12/09 09:59:19;;;;;;;14.85;8.40;;;;;;;;;;5060855;28;20053;-68
2021/12/09 10:01:46;;;;;;;22.60;9.73;;;;;;;;;;5031038;28;20050;-67
2021/12/09 10:04:19;;;;;;;14.40;8.95;;;;;;;;;;5031611;28;20486;-67
2021/12/09 10:06:46;;;;;;;15.70;9.65;;;;;;;;;;5039767;28;20055;-68
2021/12/09 10:09:14;;;;;;;15.52;9.15;;;;;;;;;;5051178;28;20500;-68
2021/12/09 10:11:40;;;;;;;19.15;9.55;;;;;;;;;;5051155;28;20056;-67
2021/12/09 10:14:21;;;;;;;18.02;9.98;;;;;;;;;;5051063;28;20108;-68
2021/12/09 10:17:00;;;;;;;21.15;10.38;;;;;;;;;;5050021;28;20049;-66
2021/12/09 10:19:26;;;;;;;15.88;9.77;;;;;;;;;;5047457;28;20116;-67
2021/12/09 10:22:06;;;;;;;22.55;10.45;;;;;;;;;;5029856;28;20058;-69
2021/12/09 10:24:34;;;;;;;20.10;10.13;;;;;;;;;;5049739;28;20053;-69
2021/12/09 10:27:01;;;;;;;24.10;11.48;;;;;;;;;;5051383;28;20303;-68
2021/12/09 10:32:28;;;;;;;21.30;12.73;;;;;;;;;;5042366;28;20063;-68
2021/12/09 10:35:01;;;;;;;22.25;11.45;;;;;;;;;;5071151;28;20420;-68
2021/12/09 10:37:28;;;;;;;19.30;11.18;;;;;;;;;;5071515;28;20180;-68
2021/12/09 10:40:07;;;;;;;18.33;10.93;;;;;;;;;;5049278;28;20057;-69
2021/12/09 10:42:36;;;;;;;27.88;10.65;;;;;;;;;;5050169;28;21018;-69
2021/12/09 10:45:11;;;;;;;21.02;10.25;;;;;;;;;;5050838;28;20069;-68
2021/12/09 10:50:20;;;;;;;17.17;9.27;;;;;;;;;;5038775;28;45868;-70
2021/12/09 10:55:47;;;;;;;20.50;10.95;;;;;;;;;;5027833;28;20056;-69
2021/12/09 10:58:14;;;;;;;23.10;11.35;;;;;;;;;;5050734;28;20053;-69
2021/12/09 11:00:43;;;;;;;25.42;11.73;;;;;;;;;;5049957;28;20056;-68
2021/12/09 11:03:25;;;;;;;25.05;11.98;;;;;;;;;;5050696;28;20131;-72
2021/12/09 11:06:06;;;;;;;22.55;11.63;;;;;;;;;;5040352;28;20053;-69
2021/12/09 11:08:36;;;;;;;25.02;11.93;;;;;;;;;;5050308;28;20057;-68
2021/12/09 11:11:13;;;;;;;22.23;11.88;;;;;;;;;;5050711;28;20115;-68
2021/12/09 11:13:50;;;;;;;31.58;12.80;;;;;;;;;;5060021;28;20097;-67
2021/12/09 11:16:25;;;;;;;23.25;12.13;;;;;;;;;;5049803;28;20049;-68
2021/12/09 11:19:10;;;;;;;25.08;12.60;;;;;;;;;;5049770;28;20050;-69
2021/12/09 11:21:40;;;;;;;23.75;11.32;;;;;;;;;;5052089;28;20054;-68
2021/12/09 11:24:10;;;;;;;26.27;13.25;;;;;;;;;;5052563;28;20046;-68
2021/12/09 11:27:02;;;;;;;23.30;12.50;;;;;;;;;;5058002;28;20056;-70
2021/12/09 11:29:30;;;;;;;23.65;11.80;;;;;;;;;;5050258;28;20058;-69
2021/12/09 11:32:15;;;;;;;19.60;11.48;;;;;;;;;;5049791;28;20210;-69
2021/12/09 11:34:50;;;;;;;24.35;12.90;;;;;;;;;;5050296;28;20493;-70
2021/12/09 11:40:00;;;;;;;26.17;13.23;;;;;;;;;;5048483;28;20058;-68
2021/12/09 11:42:33;;;;;;;33.03;14.35;;;;;;;;;;5049568;28;20068;-70
2021/12/09 11:45:04;;;;;;;25.55;12.68;;;;;;;;;;5050801;28;20061;-69
2021/12/09 11:47:30;;;;;;;22.63;13.10;;;;;;;;;;5056490;28;20053;-68
2021/12/09 11:50:08;;;;;;;22.20;13.32;;;;;;;;;;5047251;28;20064;-70
2021/12/09 11:52:36;;;;;;;33.50;13.93;;;;;;;;;;5048189;28;20050;-69
2021/12/09 11:55:08;;;;;;;23.27;14.15;;;;;;;;;;5047470;28;20104;-70
2021/12/09 11:57:49;;;;;;;26.40;13.80;;;;;;;;;;5052749;28;20549;-70
2021/12/09 12:11:56;;;;;;;23.58;14.25;;;;;;;;;;5032942;28;20053;-68
2021/12/09 12:14:33;;;;;;;25.92;14.18;;;;;;;;;;5051479;28;20515;-70
2021/12/09 12:17:09;;;;;;;24.73;14.10;;;;;;;;;;5052580;28;20783;-69
2021/12/09 12:20:45;;;;;;;23.10;14.15;;;;;;;;;;5053377;28;20060;-68
2021/12/09 12:28:43;;;;;;;22.45;14.10;;;;;;;;;;5038085;28;20173;-68
2021/12/09 12:33:56;;;;;;;23.70;14.05;;;;;;;;;;5052342;28;44410;-68
2021/12/09 12:37:03;;;;;;;24.30;15.02;;;;;;;;;;5052990;28;20107;-68
2021/12/09 12:42:20;;;;;;;27.33;17.20;;;;;;;;;;5052787;28;20049;-70
2021/12/09 12:45:05;;;;;;;26.20;15.68;;;;;;;;;;5054617;28;20053;-70
2021/12/09 12:47:39;;;;;;;27.13;15.77;;;;;;;;;;5055395;28;20057;-70
2021/12/09 12:50:13;;;;;;;23.02;14.50;;;;;;;;;;5052934;28;20281;-70
2021/12/09 12:52:40;;;;;;;22.65;15.35;;;;;;;;;;5051235;28;20060;-69
2021/12/09 12:55:12;;;;;;;28.15;16.70;;;;;;;;;;5052880;28;20053;-68
2021/12/09 12:57:42;;;;;;;26.05;16.20;;;;;;;;;;5051847;28;20066;-68
2021/12/09 13:00:09;;;;;;;22.92;16.27;;;;;;;;;;5052036;28;20498;-70
2021/12/09 13:05:32;;;;;;;26.75;15.32;;;;;;;;;;5057160;28;20080;-71
2021/12/09 13:08:21;;;;;;;23.23;15.68;;;;;;;;;;5052472;28;20092;-70
2021/12/09 13:13:33;;;;;;;23.92;14.32;;;;;;;;;;5032063;28;20465;-67
2021/12/09 13:21:46;;;;;;;30.23;16.40;;;;;;;;;;5047734;28;20060;-68
2021/12/09 13:24:30;;;;;;;29.75;16.08;;;;;;;;;;5061826;28;20059;-69
2021/12/09 13:30:05;;;;;;;25.10;16.67;;;;;;;;;;5051893;28;20060;-69
2021/12/09 13:33:02;;;;;;;27.45;15.27;;;;;;;;;;5055099;28;20464;-68
2021/12/09 13:40:40;;;;;;;30.77;17.05;;;;;;;;;;5056322;28;20059;-68
2021/12/09 13:46:08;;;;;;;30.23;18.75;;;;;;;;;;5053042;28;20549;-69
2021/12/09 13:48:45;;;;;;;27.50;17.35;;;;;;;;;;5051329;28;20133;-67
2021/12/09 13:54:24;;;;;;;33.88;18.60;;;;;;;;;;5060465;28;20078;-70
2021/12/09 13:56:56;;;;;;;30.80;18.05;;;;;;;;;;5068996;28;20092;-69
2021/12/09 13:59:23;;;;;;;34.22;19.10;;;;;;;;;;5051475;28;20053;-68
2021/12/09 14:01:51;;;;;;;34.35;20.02;;;;;;;;;;5052817;28;20057;-68
2021/12/09 14:04:21;;;;;;;31.95;19.77;;;;;;;;;;5067979;28;20562;-69
2021/12/09 14:06:56;;;;;;;27.83;19.23;;;;;;;;;;5054664;28;20054;-69
2021/12/09 14:09:23;;;;;;;31.70;19.63;;;;;;;;;;5051621;28;20046;-70
2021/12/09 14:11:50;;;;;;;35.70;19.83;;;;;;;;;;5054116;28;20159;-70
2021/12/09 14:14:24;;;;;;;34.67;20.73;;;;;;;;;;5051254;28;20144;-69
2021/12/09 14:16:56;;;;;;;37.38;20.02;;;;;;;;;;5052863;28;20413;-69
2021/12/09 14:21:53;;;;;;;32.50;19.80;;;;;;;;;;5050507;28;20055;-70
2021/12/09 14:24:23;;;;;;;31.77;18.83;;;;;;;;;;5051083;28;20051;-69
2021/12/09 14:26:54;;;;;;;31.67;20.95;;;;;;;;;;5052834;28;20057;-68
2021/12/09 14:29:20;;;;;;;36.00;20.45;;;;;;;;;;5049893;28;20516;-68
2021/12/09 14:31:49;;;;;;;31.60;18.83;;;;;;;;;;5048612;28;20053;-67
2021/12/09 14:34:17;;;;;;;34.42;20.13;;;;;;;;;;5049615;28;20073;-67
2021/12/09 14:36:45;;;;;;;36.30;20.38;;;;;;;;;;5050767;28;20136;-67
2021/12/09 14:39:13;;;;;;;35.83;20.58;;;;;;;;;;5050994;28;20513;-69
2021/12/09 14:41:40;;;;;;;35.47;19.85;;;;;;;;;;5049693;28;20055;-69
2021/12/09 14:44:09;;;;;;;32.08;20.02;;;;;;;;;;5051039;28;20520;-69
2021/12/09 14:46:38;;;;;;;35.50;20.50;;;;;;;;;;5052799;28;22286;-69
2021/12/09 14:49:19;;;;;;;32.20;20.25;;;;;;;;;;5056102;28;20053;-69
2021/12/09 14:51:46;;;;;;;38.70;20.25;;;;;;;;;;5055487;28;20131;-69
2021/12/09 14:54:13;;;;;;;33.63;22.02;;;;;;;;;;5065387;28;20060;-69
2021/12/09 14:56:52;;;;;;;35.70;23.83;;;;;;;;;;5050734;28;20115;-69
2021/12/09 14:59:26;;;;;;;30.77;19.63;;;;;;;;;;5051503;28;20508;-69
2021/12/09 15:02:12;;;;;;;38.78;20.60;;;;;;;;;;5058581;28;20057;-69
2021/12/09 15:04:52;;;;;;;37.58;20.30;;;;;;;;;;5073031;28;20045;-69
2021/12/09 15:07:28;;;;;;;37.97;21.30;;;;;;;;;;5052075;28;20053;-70
2021/12/09 15:10:12;;;;;;;35.75;20.25;;;;;;;;;;5051272;28;20053;-69
2021/12/09 15:12:40;;;;;;;32.55;19.38;;;;;;;;;;5065219;28;20045;-69
2021/12/09 15:15:08;;;;;;;34.97;20.58;;;;;;;;;;5061791;28;20057;-67
2021/12/09 15:17:37;;;;;;;39.90;20.85;;;;;;;;;;5054889;28;20524;-70
2021/12/09 15:20:08;;;;;;;38.80;19.95;;;;;;;;;;5064700;28;20144;-70
2021/12/09 15:22:40;;;;;;;34.22;20.40;;;;;;;;;;5049213;28;20054;-72
2021/12/09 15:25:08;;;;;;;42.22;22.15;;;;;;;;;;5049958;28;20502;-70
2021/12/09 15:27:52;;;;;;;35.28;20.20;;;;;;;;;;5049174;28;20057;-71
2021/12/09 15:30:19;;;;;;;32.35;19.65;;;;;;;;;;5064175;28;20056;-71
2021/12/09 15:32:57;;;;;;;37.80;21.20;;;;;;;;;;5058487;28;20051;-69
2021/12/09 15:35:24;;;;;;;34.60;21.10;;;;;;;;;;5053753;28;21020;-69
2021/12/09 15:37:50;;;;;;;34.10;20.02;;;;;;;;;;5047957;28;20053;-69
2021/12/09 15:40:17;;;;;;;42.78;20.40;;;;;;;;;;5047924;28;20049;-68
2021/12/09 15:42:44;;;;;;;40.20;22.98;;;;;;;;;;5053297;28;20080;-70
2021/12/09 15:45:10;;;;;;;37.60;21.73;;;;;;;;;;5053111;28;20057;-71
2021/12/09 15:47:37;;;;;;;43.22;21.48;;;;;;;;;;5054112;28;20160;-68